createdAt,value
2022-08-22T00:00:01.169Z,100.00
2022-08-22T00:06:20.417Z,100.00
2022-08-22T00:09:07.475Z,100.00
2022-08-22T00:11:58.012Z,100.00
2022-08-22T00:15:31.533Z,100.00
2022-08-22T00:18:36.337Z,100.00
2022-08-22T00:21:31.392Z,100.00
2022-08-22T00:24:29.154Z,100.00
2022-08-22T00:27:17.078Z,100.00
2022-08-22T00:30:18.457Z,100.00
2022-08-22T00:33:05.338Z,100.00
2022-08-22T00:35:51.698Z,100.00
2022-08-22T00:38:45.426Z,100.00
2022-08-22T00:42:06.862Z,100.00
2022-08-22T00:44:58.175Z,100.00
2022-08-22T00:48:01.706Z,100.00
2022-08-22T00:51:17.591Z,100.00
2022-08-22T00:54:17.361Z,100.00
2022-08-22T00:57:19.277Z,100.00
2022-08-22T01:00:35.068Z,100.00
2022-08-22T01:03:44.840Z,100.00
2022-08-22T01:06:47.642Z,100.00
2022-08-22T01:09:47.068Z,100.00
2022-08-22T01:13:13.001Z,100.00
2022-08-22T01:15:44.729Z,100.00
2022-08-22T01:18:48.768Z,100.00
2022-08-22T01:22:19.525Z,100.00
2022-08-22T01:25:21.455Z,100.00
2022-08-22T01:28:20.556Z,100.00
2022-08-22T01:31:28.728Z,100.00
2022-08-22T01:34:41.533Z,100.00
2022-08-22T01:38:25.804Z,100.00
2022-08-22T01:41:17.175Z,100.00
2022-08-22T01:44:28.989Z,100.00
2022-08-22T01:47:16.789Z,100.00
2022-08-22T01:50:12.869Z,100.00
2022-08-22T01:53:16.293Z,100.00
2022-08-22T01:56:12.016Z,100.00
2022-08-22T01:59:05.275Z,100.00
2022-08-22T02:02:12.393Z,100.00
2022-08-22T02:05:02.415Z,100.00
2022-08-22T02:08:00.639Z,100.00
2022-08-22T02:11:04.587Z,100.00
2022-08-22T02:13:58.703Z,100.00
2022-08-22T02:16:38.780Z,100.00
2022-08-22T02:19:14.290Z,100.00
2022-08-22T02:22:53.484Z,100.00
2022-08-22T02:25:33.584Z,100.00
2022-08-22T02:28:16.311Z,100.00
2022-08-22T02:31:16.720Z,100.00
2022-08-22T02:34:36.920Z,100.00
2022-08-22T02:37:21.937Z,100.00
2022-08-22T02:40:39.672Z,100.00
2022-08-22T02:43:36.040Z,100.00
2022-08-22T02:46:27.342Z,100.00
2022-08-22T02:49:43.985Z,100.00
2022-08-22T02:52:32.212Z,100.00
2022-08-22T02:55:20.060Z,100.00
2022-08-22T02:58:21.130Z,100.00
2022-08-22T03:00:59.113Z,100.00
2022-08-22T03:03:36.254Z,100.00
2022-08-22T03:06:40.162Z,100.00
2022-08-22T03:09:32.591Z,100.00
2022-08-22T03:12:36.032Z,100.00
2022-08-22T03:15:23.126Z,100.00
2022-08-22T03:18:25.677Z,100.00
2022-08-22T03:21:31.131Z,100.00
2022-08-22T03:24:14.537Z,100.00
2022-08-22T03:27:32.381Z,100.00
2022-08-22T03:30:17.462Z,100.00
2022-08-22T03:33:21.299Z,100.00
2022-08-22T03:35:48.164Z,100.00
2022-08-22T03:39:08.207Z,100.00
2022-08-22T03:42:18.396Z,100.00
2022-08-22T03:45:35.310Z,100.00
2022-08-22T03:48:42.583Z,100.00
2022-08-22T03:51:27.326Z,100.00
2022-08-22T03:54:38.524Z,100.00
2022-08-22T03:58:27.606Z,100.00
2022-08-22T04:01:25.726Z,100.00
2022-08-22T04:04:37.305Z,100.00
2022-08-22T04:07:35.384Z,100.00
2022-08-22T04:10:59.135Z,100.00
2022-08-22T04:14:18.266Z,100.00
2022-08-22T04:21:49.303Z,100.00
2022-08-22T04:25:07.629Z,100.00
2022-08-22T04:28:16.084Z,100.00
2022-08-22T04:31:08.532Z,100.00
2022-08-22T04:34:01.293Z,100.00
2022-08-22T04:37:00.780Z,100.00
2022-08-22T04:39:57.321Z,100.00
2022-08-22T04:42:41.936Z,100.00
2022-08-22T04:45:29.862Z,100.00
2022-08-22T04:48:35.020Z,100.00
2022-08-22T04:51:22.962Z,100.00
2022-08-22T04:54:37.827Z,100.00
2022-08-22T04:58:09.066Z,100.00
2022-08-22T05:00:56.651Z,100.00
2022-08-22T05:03:29.793Z,100.00
2022-08-22T05:06:05.243Z,100.00
2022-08-22T05:08:41.300Z,100.00
2022-08-22T05:11:18.052Z,100.00
2022-08-22T05:14:00.130Z,100.00
2022-08-22T05:16:51.315Z,100.00
2022-08-22T05:19:37.489Z,100.00
2022-08-22T05:22:30.427Z,100.00
2022-08-22T05:25:12.642Z,100.00
2022-08-22T05:27:53.311Z,100.00
2022-08-22T05:30:31.484Z,100.00
2022-08-22T05:33:32.316Z,100.00
2022-08-22T05:36:13.500Z,100.00
2022-08-22T05:39:28.279Z,100.00
2022-08-22T05:42:04.045Z,100.00
2022-08-22T05:44:38.380Z,100.00
2022-08-22T05:47:53.356Z,100.00
2022-08-22T05:50:50.838Z,100.00
2022-08-22T05:53:41.075Z,100.00
2022-08-22T05:56:37.485Z,100.00
2022-08-22T05:59:27.807Z,100.00
2022-08-22T06:02:23.956Z,100.00
2022-08-22T06:05:02.592Z,100.00
2022-08-22T06:07:46.060Z,100.00
2022-08-22T06:10:33.116Z,100.00
2022-08-22T06:13:26.455Z,100.00
2022-08-22T06:16:18.775Z,100.00
2022-08-22T06:18:46.646Z,100.00
2022-08-22T06:21:39.122Z,100.00
2022-08-22T06:24:24.145Z,100.00
2022-08-22T06:27:05.862Z,100.00
2022-08-22T06:30:03.216Z,100.00
2022-08-22T06:32:59.204Z,100.00
2022-08-22T06:36:02.993Z,100.00
2022-08-22T06:39:10.369Z,100.00
2022-08-22T06:41:50.978Z,100.00
2022-08-22T06:44:31.814Z,100.00
2022-08-22T06:47:08.509Z,100.00
2022-08-22T06:49:40.456Z,100.00
2022-08-22T06:52:21.369Z,100.00
2022-08-22T06:55:00.476Z,100.00
2022-08-22T06:57:48.868Z,100.00
2022-08-22T07:00:18.256Z,100.00
2022-08-22T07:03:23.564Z,100.00
2022-08-22T07:05:57.822Z,100.00
2022-08-22T07:08:34.946Z,100.00
2022-08-22T07:11:19.567Z,100.00
2022-08-22T07:14:05.798Z,100.00
2022-08-22T07:17:04.408Z,100.00
2022-08-22T07:19:54.137Z,100.00
2022-08-22T07:22:33.092Z,99.13
2022-08-22T07:25:16.439Z,100.00
2022-08-22T07:27:58.392Z,97.43
2022-08-22T07:30:54.998Z,99.12
2022-08-22T07:33:50.478Z,93.27
2022-08-22T07:36:50.094Z,93.60
2022-08-22T07:39:38.531Z,94.97
2022-08-22T07:42:48.443Z,95.98
2022-08-22T07:45:59.322Z,95.14
2022-08-22T07:49:08.588Z,91.75
2022-08-22T07:51:54.056Z,90.56
2022-08-22T07:54:55.426Z,89.03
2022-08-22T07:57:45.978Z,91.16
2022-08-22T08:00:21.903Z,89.27
2022-08-22T08:03:07.145Z,86.55
2022-08-22T08:05:43.225Z,83.22
2022-08-22T08:08:42.719Z,83.56
2022-08-22T08:11:19.017Z,81.18
2022-08-22T08:13:59.577Z,79.00
2022-08-22T08:17:00.950Z,75.99
2022-08-22T08:19:34.686Z,75.75
2022-08-22T08:22:04.833Z,74.31
2022-08-22T08:24:43.376Z,77.63
2022-08-22T08:27:50.196Z,74.14
2022-08-22T08:30:37.256Z,68.44
2022-08-22T08:33:25.610Z,64.48
2022-08-22T08:36:27.562Z,67.54
2022-08-22T08:39:19.665Z,64.06
2022-08-22T08:42:26.228Z,64.97
2022-08-22T08:45:41.410Z,64.53
2022-08-22T08:49:14.961Z,64.51
2022-08-22T08:52:34.110Z,62.03
2022-08-22T08:55:42.493Z,63.01
2022-08-22T08:58:37.906Z,65.44
2022-08-22T09:01:42.967Z,62.93
2022-08-22T09:05:05.854Z,64.08
2022-08-22T09:08:18.510Z,61.26
2022-08-22T09:11:47.867Z,64.89
2022-08-22T09:14:27.054Z,63.62
2022-08-22T09:17:52.790Z,67.68
2022-08-22T09:20:54.751Z,62.30
2022-08-22T09:24:00.422Z,64.06
2022-08-22T09:26:57.174Z,63.74
2022-08-22T09:29:54.962Z,60.80
2022-08-22T09:33:12.680Z,62.42
2022-08-22T09:36:05.370Z,61.73
2022-08-22T09:39:08.415Z,59.62
2022-08-22T09:46:36.793Z,59.15
2022-08-22T09:50:04.990Z,61.30
2022-08-22T09:53:07.943Z,58.42
2022-08-22T09:56:16.620Z,60.06
2022-08-22T09:59:20.898Z,60.36
2022-08-22T10:02:32.379Z,59.68
2022-08-22T10:06:00.739Z,57.92
2022-08-22T10:09:08.991Z,59.81
2022-08-22T10:12:13.074Z,59.34
2022-08-22T10:15:39.888Z,60.70
2022-08-22T10:18:27.300Z,60.25
2022-08-22T10:21:25.270Z,58.77
2022-08-22T10:24:13.170Z,56.72
2022-08-22T10:27:18.385Z,58.14
2022-08-22T10:30:18.573Z,57.78
2022-08-22T10:33:00.521Z,59.04
2022-08-22T10:35:45.609Z,57.50
2022-08-22T10:38:46.823Z,56.89
2022-08-22T10:42:08.422Z,54.83
2022-08-22T10:45:36.386Z,54.05
2022-08-22T10:48:08.015Z,56.05
2022-08-22T10:51:08.716Z,56.28
2022-08-22T10:54:08.982Z,54.57
2022-08-22T10:56:59.237Z,52.29
2022-08-22T10:59:51.834Z,55.62
2022-08-22T11:02:53.068Z,57.21
2022-08-22T11:05:44.779Z,53.04
2022-08-22T11:09:22.522Z,53.77
2022-08-22T11:12:23.803Z,51.43
2022-08-22T11:15:34.855Z,51.79
2022-08-22T11:19:15.365Z,50.21
2022-08-22T11:22:33.986Z,51.50
2022-08-22T11:25:52.443Z,49.32
2022-08-22T11:28:57.753Z,51.32
2022-08-22T11:32:13.654Z,54.06
2022-08-22T11:34:56.700Z,52.60
2022-08-22T11:38:33.855Z,50.02
2022-08-22T11:41:25.372Z,49.90
2022-08-22T11:44:25.799Z,49.10
2022-08-22T11:46:59.043Z,51.47
2022-08-22T11:50:03.910Z,52.44
2022-08-22T11:53:47.333Z,52.95
2022-08-22T11:56:49.251Z,54.68
2022-08-22T11:59:43.367Z,51.30
2022-08-22T12:03:29.768Z,52.70
2022-08-22T12:06:08.887Z,50.09
2022-08-22T12:08:35.863Z,49.85
2022-08-22T12:12:25.125Z,50.77
2022-08-22T12:15:43.671Z,50.38
2022-08-22T12:19:14.850Z,51.18
2022-08-22T12:22:36.210Z,52.45
2022-08-22T12:25:47.298Z,51.52
2022-08-22T12:29:16.831Z,52.40
2022-08-22T12:31:59.123Z,52.83
2022-08-22T12:35:17.909Z,52.28
2022-08-22T12:38:37.955Z,52.62
2022-08-22T12:41:58.681Z,51.99
2022-08-22T12:45:22.422Z,51.18
2022-08-22T12:48:47.985Z,51.73
2022-08-22T12:52:07.971Z,51.66
2022-08-22T12:55:13.493Z,50.52
2022-08-22T12:59:11.541Z,48.97
2022-08-22T13:01:50.404Z,49.28
2022-08-22T13:04:32.419Z,48.81
2022-08-22T13:07:31.649Z,50.42
2022-08-22T13:10:35.751Z,51.08
2022-08-22T13:13:12.124Z,50.44
2022-08-22T13:16:00.046Z,46.73
2022-08-22T13:18:46.515Z,48.86
2022-08-22T13:21:34.983Z,47.72
2022-08-22T13:24:51.829Z,47.33
2022-08-22T13:27:50.947Z,49.38
2022-08-22T13:30:37.433Z,47.71
2022-08-22T13:33:14.418Z,49.05
2022-08-22T13:36:03.198Z,48.54
2022-08-22T13:38:53.275Z,48.68
2022-08-22T13:41:45.849Z,52.02
2022-08-22T13:44:26.811Z,49.76
2022-08-22T13:47:14.240Z,50.43
2022-08-22T13:50:10.175Z,50.55
2022-08-22T13:52:55.214Z,50.53
2022-08-22T13:55:49.597Z,51.08
2022-08-22T13:58:45.418Z,50.48
2022-08-22T14:01:48.058Z,50.40
2022-08-22T14:04:36.474Z,51.28
2022-08-22T14:07:04.508Z,53.27
2022-08-22T14:10:18.687Z,52.21
2022-08-22T14:13:40.739Z,54.88
2022-08-22T14:16:36.557Z,53.71
2022-08-22T14:19:35.000Z,53.05
2022-08-22T14:22:34.945Z,51.93
2022-08-22T14:25:28.395Z,52.01
2022-08-22T14:28:09.354Z,51.78
2022-08-22T14:31:00.665Z,53.14
2022-08-22T14:34:00.242Z,51.71
2022-08-22T14:37:02.725Z,51.74
2022-08-22T14:40:01.013Z,51.91
2022-08-22T14:42:58.508Z,53.98
2022-08-22T14:45:43.052Z,53.50
2022-08-22T14:48:40.560Z,52.66
2022-08-22T14:51:24.250Z,51.60
2022-08-22T14:53:52.639Z,51.63
2022-08-22T14:56:29.974Z,53.74
2022-08-22T14:59:45.302Z,52.67
2022-08-22T15:02:33.164Z,53.74
2022-08-22T15:05:19.904Z,51.07
2022-08-22T15:08:01.438Z,53.16
2022-08-22T15:10:34.410Z,52.58
2022-08-22T15:13:08.664Z,50.21
2022-08-22T15:15:54.344Z,53.63
2022-08-22T15:18:28.621Z,52.09
2022-08-22T15:21:11.251Z,55.46
2022-08-22T15:23:46.999Z,53.32
2022-08-22T15:26:55.559Z,52.72
2022-08-22T15:30:05.370Z,50.96
2022-08-22T15:32:42.979Z,53.50
2022-08-22T15:35:31.233Z,52.03
2022-08-22T15:38:08.790Z,50.32
2022-08-22T15:40:46.302Z,50.84
2022-08-22T15:43:33.649Z,53.40
2022-08-22T15:46:21.339Z,52.33
2022-08-22T15:49:30.940Z,50.86
2022-08-22T15:52:01.028Z,52.05
2022-08-22T15:54:57.209Z,53.10
2022-08-22T15:57:39.125Z,53.14
2022-08-22T16:00:45.492Z,54.19
2022-08-22T16:03:31.232Z,52.95
2022-08-22T16:06:09.799Z,54.03
2022-08-22T16:08:36.687Z,53.79
2022-08-22T16:11:03.614Z,53.71
2022-08-22T16:13:30.527Z,54.30
2022-08-22T16:16:11.882Z,54.13
2022-08-22T16:18:43.279Z,54.86
2022-08-22T16:21:22.472Z,55.74
2022-08-22T16:23:58.433Z,56.27
2022-08-22T16:26:43.069Z,57.93
2022-08-22T16:29:18.060Z,56.87
2022-08-22T16:31:48.298Z,58.98
2022-08-22T16:34:18.236Z,57.80
2022-08-22T16:37:03.440Z,57.57
2022-08-22T16:39:42.485Z,60.11
2022-08-22T16:42:16.104Z,60.36
2022-08-22T16:45:17.923Z,59.73
2022-08-22T16:47:58.543Z,60.00
2022-08-22T16:50:37.360Z,59.37
2022-08-22T16:53:13.941Z,59.97
2022-08-22T16:56:05.689Z,59.60
2022-08-22T16:59:38.382Z,60.16
2022-08-22T17:02:52.638Z,61.98
2022-08-22T17:05:53.571Z,60.31
2022-08-22T17:09:14.932Z,60.56
2022-08-22T17:12:40.836Z,60.55
2022-08-22T17:15:57.382Z,61.39
2022-08-22T17:18:45.971Z,61.24
2022-08-22T17:21:28.977Z,61.60
2022-08-22T17:24:31.643Z,62.35
2022-08-22T17:27:28.150Z,63.44
2022-08-22T17:30:16.259Z,64.10
2022-08-22T17:33:30.225Z,64.52
2022-08-22T17:36:26.740Z,65.51
2022-08-22T17:39:31.082Z,66.26
2022-08-22T17:42:23.789Z,66.50
2022-08-22T17:45:34.894Z,67.11
2022-08-22T17:48:28.899Z,67.85
2022-08-22T17:51:30.510Z,68.15
2022-08-22T17:54:35.708Z,67.07
2022-08-22T17:57:38.502Z,66.09
2022-08-22T18:00:30.836Z,67.04
2022-08-22T18:03:14.364Z,68.17
2022-08-22T18:06:02.474Z,68.78
2022-08-22T18:12:21.363Z,66.61
2022-08-22T18:15:48.496Z,67.30
2022-08-22T18:18:37.507Z,68.09
2022-08-22T18:21:15.353Z,66.23
2022-08-22T18:23:58.432Z,66.48
2022-08-22T18:27:34.883Z,67.18
2022-08-22T18:30:11.532Z,67.64
2022-08-22T18:33:00.225Z,69.53
2022-08-22T18:36:14.876Z,70.30
2022-08-22T18:39:14.484Z,69.70
2022-08-22T18:41:41.329Z,69.34
2022-08-22T18:44:25.298Z,70.95
2022-08-22T18:47:16.800Z,71.09
2022-08-22T18:49:54.360Z,71.05
2022-08-22T18:52:36.857Z,71.26
2022-08-22T18:55:49.689Z,72.52
2022-08-22T18:58:38.072Z,73.05
2022-08-22T19:01:51.945Z,74.16
2022-08-22T19:05:15.478Z,75.60
2022-08-22T19:08:01.048Z,76.96
2022-08-22T19:11:22.767Z,78.45
2022-08-22T19:14:33.775Z,80.09
2022-08-22T19:17:36.317Z,80.32
2022-08-22T19:20:52.649Z,80.78
2022-08-22T19:23:40.558Z,82.38
2022-08-22T19:26:44.507Z,81.79
2022-08-22T19:29:16.028Z,81.76
2022-08-22T19:31:57.882Z,82.75
2022-08-22T19:34:30.546Z,82.85
2022-08-22T19:37:32.162Z,84.73
2022-08-22T19:40:12.611Z,84.91
2022-08-22T19:42:44.221Z,84.70
2022-08-22T19:45:27.233Z,85.40
2022-08-22T19:48:13.672Z,85.81
2022-08-22T19:50:44.148Z,86.38
2022-08-22T19:53:36.279Z,86.35
2022-08-22T19:56:29.502Z,88.23
2022-08-22T19:59:51.046Z,87.46
2022-08-22T20:02:56.764Z,88.34
2022-08-22T20:06:33.659Z,85.00
2022-08-22T20:09:53.301Z,86.68
2022-08-22T20:12:29.097Z,86.86
2022-08-22T20:14:57.253Z,85.77
2022-08-22T20:17:26.934Z,86.67
2022-08-22T20:20:19.387Z,86.44
2022-08-22T20:23:28.485Z,87.36
2022-08-22T20:25:57.228Z,87.51
2022-08-22T20:28:40.569Z,87.91
2022-08-22T20:31:25.678Z,86.90
2022-08-22T20:34:08.562Z,86.30
2022-08-22T20:36:38.008Z,86.89
2022-08-22T20:39:22.255Z,83.83
2022-08-22T20:42:11.759Z,83.93
2022-08-22T20:44:55.968Z,83.27
2022-08-22T20:47:36.211Z,82.77
2022-08-22T20:50:14.563Z,83.83
2022-08-22T20:52:54.538Z,82.82
2022-08-22T20:55:31.558Z,82.83
2022-08-22T20:58:21.997Z,83.70
2022-08-22T21:01:00.563Z,83.73
2022-08-22T21:03:30.397Z,84.64
2022-08-22T21:06:12.979Z,84.34
2022-08-22T21:08:43.836Z,85.34
2022-08-22T21:11:40.814Z,86.05
2022-08-22T21:14:31.413Z,87.34
2022-08-22T21:16:58.652Z,87.97
2022-08-22T21:19:30.120Z,87.88
2022-08-22T21:22:25.864Z,88.88
2022-08-22T21:24:59.487Z,89.02
2022-08-22T21:27:35.008Z,90.10
2022-08-22T21:30:11.314Z,89.99
2022-08-22T21:32:53.747Z,90.19
2022-08-22T21:35:33.670Z,90.68
2022-08-22T21:38:02.634Z,92.23
2022-08-22T21:40:37.971Z,92.03
2022-08-22T21:43:38.735Z,93.04
2022-08-22T21:46:08.239Z,93.45
2022-08-22T21:48:46.364Z,94.29
2022-08-22T21:51:31.918Z,94.39
2022-08-22T21:54:21.959Z,95.65
2022-08-22T21:57:20.649Z,97.00
2022-08-22T21:59:59.387Z,97.08
2022-08-22T22:02:39.721Z,99.00
2022-08-22T22:05:14.418Z,99.97
2022-08-22T22:07:46.911Z,99.45
2022-08-22T22:10:19.732Z,100.00
2022-08-22T22:12:51.957Z,99.95
2022-08-22T22:15:27.361Z,100.00
2022-08-22T22:17:55.850Z,100.00
2022-08-22T22:20:26.330Z,100.00
2022-08-22T22:22:55.301Z,100.00
2022-08-22T22:25:41.291Z,100.00
2022-08-22T22:28:21.466Z,100.00
2022-08-22T22:30:53.429Z,100.00
2022-08-22T22:33:27.928Z,100.00
2022-08-22T22:36:04.396Z,100.00
2022-08-22T22:38:31.751Z,100.00
2022-08-22T22:40:58.904Z,100.00
2022-08-22T22:43:26.437Z,100.00
2022-08-22T22:45:53.454Z,100.00
2022-08-22T22:48:23.982Z,100.00
2022-08-22T22:50:54.002Z,100.00
2022-08-22T22:53:38.108Z,100.00
2022-08-22T22:56:11.515Z,100.00
2022-08-22T22:58:39.163Z,100.00
2022-08-22T23:01:25.130Z,100.00
2022-08-22T23:04:03.281Z,100.00
2022-08-22T23:06:34.430Z,100.00
2022-08-22T23:09:01.803Z,100.00
2022-08-22T23:11:31.032Z,100.00
2022-08-22T23:13:58.154Z,100.00
2022-08-22T23:16:28.884Z,100.00
2022-08-22T23:18:57.092Z,100.00
2022-08-22T23:21:30.431Z,100.00
2022-08-22T23:24:00.387Z,100.00
2022-08-22T23:26:29.103Z,100.00
2022-08-22T23:28:57.911Z,100.00
2022-08-22T23:31:34.173Z,100.00
2022-08-22T23:34:10.241Z,100.00
2022-08-22T23:36:40.852Z,100.00
2022-08-22T23:39:10.454Z,100.00
2022-08-22T23:41:39.218Z,100.00
2022-08-22T23:44:13.496Z,100.00
2022-08-22T23:46:43.140Z,100.00
2022-08-22T23:49:11.868Z,100.00
2022-08-22T23:51:40.500Z,100.00
2022-08-22T23:54:08.570Z,100.00
2022-08-22T23:56:50.292Z,100.00
2022-08-22T23:59:30.050Z,100.00
